sensor_id;sensor_type;location;lat;lon;timestamp;pressure;altitude;pressure_sealevel;temperature;humidity
68871;BME280;55906;52.278;6.808;2023-04-08T00:01:30;102121.66;;;6.23;76.86
68871;BME280;55906;52.278;6.808;2023-04-08T00:03:56;102122.38;;;6.20;76.34
68871;BME280;55906;52.278;6.808;2023-04-08T00:06:23;102120.66;;;6.21;76.45
68871;BME280;55906;52.278;6.808;2023-04-08T00:08:51;102117.06;;;6.19;76.88
68871;BME280;55906;52.278;6.808;2023-04-08T00:11:18;102122.00;;;6.14;76.26
68871;BME280;55906;52.278;6.808;2023-04-08T00:13:46;102128.63;;;6.09;76.36
68871;BME280;55906;52.278;6.808;2023-04-08T00:16:12;102122.50;;;6.08;76.27
68871;BME280;55906;52.278;6.808;2023-04-08T00:18:39;102119.09;;;6.09;76.43
68871;BME280;55906;52.278;6.808;2023-04-08T00:21:05;102121.59;;;6.08;76.54
68871;BME280;55906;52.278;6.808;2023-04-08T00:23:32;102124.91;;;6.05;75.69
68871;BME280;55906;52.278;6.808;2023-04-08T00:25:59;102122.31;;;6.05;75.98
68871;BME280;55906;52.278;6.808;2023-04-08T00:28:25;102126.53;;;6.03;76.27
68871;BME280;55906;52.278;6.808;2023-04-08T00:30:53;102135.06;;;6.01;75.39
68871;BME280;55906;52.278;6.808;2023-04-08T00:33:20;102130.66;;;6.00;75.56
68871;BME280;55906;52.278;6.808;2023-04-08T00:35:49;102131.47;;;5.99;75.92
68871;BME280;55906;52.278;6.808;2023-04-08T00:38:16;102140.09;;;5.98;75.79
68871;BME280;55906;52.278;6.808;2023-04-08T00:40:42;102131.75;;;5.90;74.06
68871;BME280;55906;52.278;6.808;2023-04-08T00:43:09;102132.44;;;5.88;75.52
68871;BME280;55906;52.278;6.808;2023-04-08T00:45:37;102143.78;;;5.88;74.53
68871;BME280;55906;52.278;6.808;2023-04-08T00:48:05;102142.88;;;5.88;74.83
68871;BME280;55906;52.278;6.808;2023-04-08T00:50:32;102141.06;;;5.87;74.43
68871;BME280;55906;52.278;6.808;2023-04-08T00:52:59;102142.69;;;5.85;75.02
68871;BME280;55906;52.278;6.808;2023-04-08T00:55:25;102142.69;;;5.85;74.31
68871;BME280;55906;52.278;6.808;2023-04-08T00:57:52;102141.97;;;5.87;74.98
68871;BME280;55906;52.278;6.808;2023-04-08T01:00:19;102145.28;;;5.85;75.07
68871;BME280;55906;52.278;6.808;2023-04-08T01:02:50;102140.97;;;5.85;74.67
68871;BME280;55906;52.278;6.808;2023-04-08T01:05:27;102138.25;;;5.84;73.99
68871;BME280;55906;52.278;6.808;2023-04-08T01:07:58;102155.53;;;5.82;74.79
68871;BME280;55906;52.278;6.808;2023-04-08T01:10:29;102157.94;;;5.78;74.20
68871;BME280;55906;52.278;6.808;2023-04-08T01:12:58;102156.84;;;5.75;74.75
68871;BME280;55906;52.278;6.808;2023-04-08T01:15:28;102148.00;;;5.73;75.67
68871;BME280;55906;52.278;6.808;2023-04-08T01:17:57;102153.84;;;5.69;74.40
68871;BME280;55906;52.278;6.808;2023-04-08T01:20:26;102151.13;;;5.67;74.61
68871;BME280;55906;52.278;6.808;2023-04-08T01:23:02;102152.03;;;5.68;75.00
68871;BME280;55906;52.278;6.808;2023-04-08T01:25:32;102155.34;;;5.65;75.41
68871;BME280;55906;52.278;6.808;2023-04-08T01:28:03;102155.13;;;5.62;75.53
68871;BME280;55906;52.278;6.808;2023-04-08T01:30:31;102152.22;;;5.58;76.02
68871;BME280;55906;52.278;6.808;2023-04-08T01:33:01;102155.44;;;5.54;76.22
68871;BME280;55906;52.278;6.808;2023-04-08T01:35:29;102162.94;;;5.49;75.59
68871;BME280;55906;52.278;6.808;2023-04-08T01:37:56;102159.13;;;5.44;76.18
68871;BME280;55906;52.278;6.808;2023-04-08T01:40:24;102159.81;;;5.41;76.20
68871;BME280;55906;52.278;6.808;2023-04-08T01:42:54;102163.03;;;5.37;76.59
68871;BME280;55906;52.278;6.808;2023-04-08T01:45:23;102171.34;;;5.32;76.92
68871;BME280;55906;52.278;6.808;2023-04-08T01:47:51;102160.50;;;5.26;76.60
68871;BME280;55906;52.278;6.808;2023-04-08T01:50:18;102172.44;;;5.22;77.16
68871;BME280;55906;52.278;6.808;2023-04-08T01:52:47;102168.81;;;5.20;76.94
68871;BME280;55906;52.278;6.808;2023-04-08T01:55:15;102170.28;;;5.17;77.36
68871;BME280;55906;52.278;6.808;2023-04-08T01:57:47;102172.78;;;5.15;77.50
68871;BME280;55906;52.278;6.808;2023-04-08T02:00:18;102170.84;;;5.12;77.50
68871;BME280;55906;52.278;6.808;2023-04-08T02:02:48;102170.66;;;5.09;77.29
68871;BME280;55906;52.278;6.808;2023-04-08T02:05:15;102173.84;;;5.05;77.59
68871;BME280;55906;52.278;6.808;2023-04-08T02:07:41;102170.13;;;5.02;77.74
68871;BME280;55906;52.278;6.808;2023-04-08T02:10:10;102167.19;;;4.97;77.08
68871;BME280;55906;52.278;6.808;2023-04-08T02:12:36;102167.78;;;4.93;77.61
68871;BME280;55906;52.278;6.808;2023-04-08T02:15:04;102175.50;;;4.92;77.09
68871;BME280;55906;52.278;6.808;2023-04-08T02:17:35;102163.97;;;4.88;77.71
68871;BME280;55906;52.278;6.808;2023-04-08T02:20:09;102171.56;;;4.85;77.71
68871;BME280;55906;52.278;6.808;2023-04-08T02:22:39;102178.28;;;4.81;78.05
68871;BME280;55906;52.278;6.808;2023-04-08T02:25:12;102179.66;;;4.76;77.16
68871;BME280;55906;52.278;6.808;2023-04-08T02:27:40;102182.16;;;4.75;77.47
68871;BME280;55906;52.278;6.808;2023-04-08T02:30:08;102182.03;;;4.73;77.40
68871;BME280;55906;52.278;6.808;2023-04-08T02:32:37;102187.16;;;4.72;78.16
68871;BME280;55906;52.278;6.808;2023-04-08T02:35:04;102181.81;;;4.70;77.95
68871;BME280;55906;52.278;6.808;2023-04-08T02:37:33;102186.72;;;4.66;77.61
68871;BME280;55906;52.278;6.808;2023-04-08T02:40:00;102189.00;;;4.61;78.35
68871;BME280;55906;52.278;6.808;2023-04-08T02:42:26;102203.72;;;4.61;78.19
68871;BME280;55906;52.278;6.808;2023-04-08T02:44:53;102203.50;;;4.58;78.15
68871;BME280;55906;52.278;6.808;2023-04-08T02:47:20;102192.88;;;4.55;78.12
68871;BME280;55906;52.278;6.808;2023-04-08T02:49:46;102202.16;;;4.51;77.90
68871;BME280;55906;52.278;6.808;2023-04-08T02:52:16;102204.56;;;4.48;77.79
68871;BME280;55906;52.278;6.808;2023-04-08T02:54:44;102210.56;;;4.47;77.68
68871;BME280;55906;52.278;6.808;2023-04-08T02:57:11;102203.31;;;4.43;78.11
68871;BME280;55906;52.278;6.808;2023-04-08T02:59:38;102210.13;;;4.41;78.14
68871;BME280;55906;52.278;6.808;2023-04-08T03:02:05;102214.31;;;4.39;77.76
68871;BME280;55906;52.278;6.808;2023-04-08T03:04:31;102211.59;;;4.37;77.94
68871;BME280;55906;52.278;6.808;2023-04-08T03:06:58;102217.59;;;4.36;78.18
68871;BME280;55906;52.278;6.808;2023-04-08T03:09:25;102217.59;;;4.36;77.72
68871;BME280;55906;52.278;6.808;2023-04-08T03:11:52;102214.88;;;4.35;77.96
68871;BME280;55906;52.278;6.808;2023-04-08T03:14:19;102212.16;;;4.33;77.95
68871;BME280;55906;52.278;6.808;2023-04-08T03:16:46;102218.28;;;4.34;78.00
68871;BME280;55906;52.278;6.808;2023-04-08T03:19:13;102213.06;;;4.34;78.07
68871;BME280;55906;52.278;6.808;2023-04-08T03:21:39;102217.38;;;4.33;77.75
68871;BME280;55906;52.278;6.808;2023-04-08T03:24:06;102213.88;;;4.33;78.03
68871;BME280;55906;52.278;6.808;2023-04-08T03:26:32;102211.25;;;4.33;78.37
68871;BME280;55906;52.278;6.808;2023-04-08T03:29:00;102209.44;;;4.32;77.97
68871;BME280;55906;52.278;6.808;2023-04-08T03:31:27;102210.03;;;4.28;77.97
68871;BME280;55906;52.278;6.808;2023-04-08T03:33:54;102217.50;;;4.23;78.57
68871;BME280;55906;52.278;6.808;2023-04-08T03:36:20;102221.00;;;4.24;78.67
68871;BME280;55906;52.278;6.808;2023-04-08T03:38:47;102222.59;;;4.22;78.78
68871;BME280;55906;52.278;6.808;2023-04-08T03:41:13;102225.88;;;4.19;79.01
68871;BME280;55906;52.278;6.808;2023-04-08T03:43:40;102222.28;;;4.17;78.53
68871;BME280;55906;52.278;6.808;2023-04-08T03:46:08;102225.66;;;4.16;78.76
68871;BME280;55906;52.278;6.808;2023-04-08T03:48:35;102226.47;;;4.15;78.59
68871;BME280;55906;52.278;6.808;2023-04-08T03:51:01;102233.38;;;4.14;78.98
68871;BME280;55906;52.278;6.808;2023-04-08T03:53:28;102227.13;;;4.12;78.98
68871;BME280;55906;52.278;6.808;2023-04-08T03:55:55;102227.03;;;4.11;78.75
68871;BME280;55906;52.278;6.808;2023-04-08T03:58:22;102234.84;;;4.11;78.79
68871;BME280;55906;52.278;6.808;2023-04-08T04:00:48;102240.72;;;4.08;79.27
68871;BME280;55906;52.278;6.808;2023-04-08T04:03:17;102238.00;;;4.07;78.56
68871;BME280;55906;52.278;6.808;2023-04-08T04:05:43;102237.00;;;4.05;79.18
68871;BME280;55906;52.278;6.808;2023-04-08T04:08:10;102236.88;;;4.03;79.60
68871;BME280;55906;52.278;6.808;2023-04-08T04:10:37;102237.78;;;4.04;79.45
68871;BME280;55906;52.278;6.808;2023-04-08T04:13:03;102236.75;;;4.02;79.28
68871;BME280;55906;52.278;6.808;2023-04-08T04:15:30;102242.66;;;3.99;79.14
68871;BME280;55906;52.278;6.808;2023-04-08T04:17:56;102228.50;;;3.96;79.53
68871;BME280;55906;52.278;6.808;2023-04-08T04:20:24;102245.69;;;3.94;79.64
68871;BME280;55906;52.278;6.808;2023-04-08T04:22:53;102246.38;;;3.91;79.76
68871;BME280;55906;52.278;6.808;2023-04-08T04:25:20;102242.06;;;3.92;79.36
68871;BME280;55906;52.278;6.808;2023-04-08T04:27:46;102243.91;;;3.93;79.85
68871;BME280;55906;52.278;6.808;2023-04-08T04:30:13;102245.69;;;3.94;80.17
68871;BME280;55906;52.278;6.808;2023-04-08T04:32:40;102240.72;;;3.97;80.12
68871;BME280;55906;52.278;6.808;2023-04-08T04:35:07;102249.78;;;4.02;80.30
68871;BME280;55906;52.278;6.808;2023-04-08T04:37:35;102258.94;;;4.08;80.28
68871;BME280;55906;52.278;6.808;2023-04-08T04:40:02;102262.13;;;4.16;80.19
68871;BME280;55906;52.278;6.808;2023-04-08T04:42:29;102257.38;;;4.22;79.66
68871;BME280;55906;52.278;6.808;2023-04-08T04:44:55;102255.44;;;4.31;80.00
68871;BME280;55906;52.278;6.808;2023-04-08T04:47:23;102269.91;;;4.39;79.76
68871;BME280;55906;52.278;6.808;2023-04-08T04:49:50;102267.88;;;4.47;79.12
68871;BME280;55906;52.278;6.808;2023-04-08T04:52:16;102264.91;;;4.54;79.18
68871;BME280;55906;52.278;6.808;2023-04-08T04:54:44;102268.06;;;4.62;79.10
68871;BME280;55906;52.278;6.808;2023-04-08T04:57:11;102263.53;;;4.71;79.21
68871;BME280;55906;52.278;6.808;2023-04-08T04:59:37;102265.66;;;4.76;79.32
68871;BME280;55906;52.278;6.808;2023-04-08T05:02:04;102273.13;;;4.83;78.83
68871;BME280;55906;52.278;6.808;2023-04-08T05:04:31;102269.47;;;4.93;79.22
68871;BME280;55906;52.278;6.808;2023-04-08T05:06:58;102272.50;;;4.99;78.65
68871;BME280;55906;52.278;6.808;2023-04-08T05:09:24;102276.13;;;5.01;78.54
68871;BME280;55906;52.278;6.808;2023-04-08T05:11:52;102271.81;;;5.02;78.29
68871;BME280;55906;52.278;6.808;2023-04-08T05:14:19;102270.34;;;5.05;78.99
68871;BME280;55906;52.278;6.808;2023-04-08T05:16:45;102280.19;;;5.09;78.38
68871;BME280;55906;52.278;6.808;2023-04-08T05:19:12;102277.91;;;5.14;77.76
68871;BME280;55906;52.278;6.808;2023-04-08T05:21:39;102277.78;;;5.24;77.98
68871;BME280;55906;52.278;6.808;2023-04-08T05:24:06;102286.94;;;5.31;78.25
68871;BME280;55906;52.278;6.808;2023-04-08T05:26:33;102282.16;;;5.37;78.06
68871;BME280;55906;52.278;6.808;2023-04-08T05:29:01;102280.97;;;5.45;78.06
68871;BME280;55906;52.278;6.808;2023-04-08T05:31:28;102285.81;;;5.52;77.83
68871;BME280;55906;52.278;6.808;2023-04-08T05:33:55;102293.25;;;5.59;77.29
68871;BME280;55906;52.278;6.808;2023-04-08T05:36:21;102292.69;;;5.63;77.15
68871;BME280;55906;52.278;6.808;2023-04-08T05:38:48;102294.41;;;5.76;77.28
68871;BME280;55906;52.278;6.808;2023-04-08T05:41:15;102298.25;;;5.81;77.24
68871;BME280;55906;52.278;6.808;2023-04-08T05:43:41;102312.75;;;5.89;76.26
68871;BME280;55906;52.278;6.808;2023-04-08T05:46:09;102316.78;;;5.97;76.72
68871;BME280;55906;52.278;6.808;2023-04-08T05:48:36;102310.25;;;5.91;76.94
68871;BME280;55906;52.278;6.808;2023-04-08T05:51:03;102313.75;;;5.91;75.99
68871;BME280;55906;52.278;6.808;2023-04-08T05:53:29;102321.34;;;5.88;75.80
68871;BME280;55906;52.278;6.808;2023-04-08T05:55:56;102321.16;;;5.85;76.01
68871;BME280;55906;52.278;6.808;2023-04-08T05:58:23;102327.50;;;5.89;76.08
68871;BME280;55906;52.278;6.808;2023-04-08T06:00:49;102334.41;;;5.88;76.13
68871;BME280;55906;52.278;6.808;2023-04-08T06:03:17;102332.94;;;5.92;76.42
68871;BME280;55906;52.278;6.808;2023-04-08T06:05:44;102328.16;;;5.98;76.21
68871;BME280;55906;52.278;6.808;2023-04-08T06:08:10;102339.00;;;6.04;75.99
68871;BME280;55906;52.278;6.808;2023-04-08T06:10:37;102338.72;;;6.13;76.17
68871;BME280;55906;52.278;6.808;2023-04-08T06:13:03;102341.22;;;6.11;76.70
68871;BME280;55906;52.278;6.808;2023-04-08T06:15:30;102334.81;;;6.19;75.94
68871;BME280;55906;52.278;6.808;2023-04-08T06:17:57;102350.69;;;6.22;76.01
68871;BME280;55906;52.278;6.808;2023-04-08T06:20:25;102348.38;;;6.27;76.05
68871;BME280;55906;52.278;6.808;2023-04-08T06:22:52;102351.09;;;6.28;76.37
68871;BME280;55906;52.278;6.808;2023-04-08T06:25:19;102356.81;;;6.23;75.50
68871;BME280;55906;52.278;6.808;2023-04-08T06:27:45;102351.69;;;6.24;75.33
68871;BME280;55906;52.278;6.808;2023-04-08T06:30:12;102357.94;;;6.26;76.15
68871;BME280;55906;52.278;6.808;2023-04-08T06:32:39;102356.13;;;6.25;75.81
68871;BME280;55906;52.278;6.808;2023-04-08T06:35:06;102355.31;;;6.26;75.68
68871;BME280;55906;52.278;6.808;2023-04-08T06:37:35;102360.94;;;6.19;76.30
68871;BME280;55906;52.278;6.808;2023-04-08T06:40:03;102361.56;;;6.28;76.13
68871;BME280;55906;52.278;6.808;2023-04-08T06:42:30;102362.38;;;6.40;76.46
68871;BME280;55906;52.278;6.808;2023-04-08T06:44:57;102358.56;;;6.49;76.63
68871;BME280;55906;52.278;6.808;2023-04-08T06:47:23;102361.50;;;6.66;75.85
68871;BME280;55906;52.278;6.808;2023-04-08T06:49:50;102352.03;;;6.82;75.45
68871;BME280;55906;52.278;6.808;2023-04-08T06:52:17;102363.31;;;6.94;75.51
68871;BME280;55906;52.278;6.808;2023-04-08T06:54:44;102356.34;;;7.07;75.37
68871;BME280;55906;52.278;6.808;2023-04-08T06:57:11;102365.16;;;7.23;75.43
68871;BME280;55906;52.278;6.808;2023-04-08T06:59:38;102361.72;;;7.24;74.52
68871;BME280;55906;52.278;6.808;2023-04-08T07:02:04;102364.50;;;7.40;75.36
68871;BME280;55906;52.278;6.808;2023-04-08T07:04:31;102370.50;;;7.52;74.31
68871;BME280;55906;52.278;6.808;2023-04-08T07:06:58;102374.88;;;7.66;74.39
68871;BME280;55906;52.278;6.808;2023-04-08T07:09:25;102377.16;;;7.75;74.58
68871;BME280;55906;52.278;6.808;2023-04-08T07:11:53;102378.88;;;8.02;74.54
68871;BME280;55906;52.278;6.808;2023-04-08T07:14:20;102377.72;;;8.12;73.88
68871;BME280;55906;52.278;6.808;2023-04-08T07:16:46;102381.63;;;8.33;73.72
68871;BME280;55906;52.278;6.808;2023-04-08T07:19:13;102379.28;;;8.53;73.39
68871;BME280;55906;52.278;6.808;2023-04-08T07:21:39;102387.88;;;8.65;73.15
68871;BME280;55906;52.278;6.808;2023-04-08T07:24:06;102379.53;;;8.72;72.86
68871;BME280;55906;52.278;6.808;2023-04-08T07:26:33;102384.38;;;9.10;72.23
68871;BME280;55906;52.278;6.808;2023-04-08T07:29:01;102395.81;;;9.27;71.94
68871;BME280;55906;52.278;6.808;2023-04-08T07:31:27;102388.19;;;9.32;71.56
68871;BME280;55906;52.278;6.808;2023-04-08T07:33:54;102399.75;;;9.35;72.22
68871;BME280;55906;52.278;6.808;2023-04-08T07:36:21;102389.59;;;9.41;71.99
68871;BME280;55906;52.278;6.808;2023-04-08T07:38:47;102397.00;;;9.65;70.65
68871;BME280;55906;52.278;6.808;2023-04-08T07:41:14;102398.97;;;10.01;70.88
68871;BME280;55906;52.278;6.808;2023-04-08T07:43:41;102396.00;;;10.27;69.54
68871;BME280;55906;52.278;6.808;2023-04-08T07:46:09;102393.47;;;10.63;69.59
68871;BME280;55906;52.278;6.808;2023-04-08T07:48:35;102388.94;;;10.78;68.87
68871;BME280;55906;52.278;6.808;2023-04-08T07:51:03;102389.63;;;10.92;67.70
68871;BME280;55906;52.278;6.808;2023-04-08T07:53:30;102393.00;;;10.89;68.36
68871;BME280;55906;52.278;6.808;2023-04-08T07:55:57;102394.41;;;11.18;67.21
68871;BME280;55906;52.278;6.808;2023-04-08T07:58:24;102388.72;;;11.46;67.80
68871;BME280;55906;52.278;6.808;2023-04-08T08:00:51;102397.56;;;11.29;66.34
68871;BME280;55906;52.278;6.808;2023-04-08T08:03:19;102392.28;;;11.29;67.44
68871;BME280;55906;52.278;6.808;2023-04-08T08:05:46;102393.03;;;11.44;67.64
68871;BME280;55906;52.278;6.808;2023-04-08T08:08:12;102397.84;;;11.35;66.65
68871;BME280;55906;52.278;6.808;2023-04-08T08:10:39;102395.09;;;11.51;67.66
68871;BME280;55906;52.278;6.808;2023-04-08T08:13:06;102399.22;;;11.64;66.58
68871;BME280;55906;52.278;6.808;2023-04-08T08:15:33;102406.00;;;11.96;66.06
68871;BME280;55906;52.278;6.808;2023-04-08T08:18:00;102409.75;;;12.21;63.95
68871;BME280;55906;52.278;6.808;2023-04-08T08:20:28;102416.16;;;12.67;64.88
68871;BME280;55906;52.278;6.808;2023-04-08T08:22:55;102419.81;;;12.92;64.53
68871;BME280;55906;52.278;6.808;2023-04-08T08:25:21;102411.66;;;13.06;63.99
68871;BME280;55906;52.278;6.808;2023-04-08T08:27:48;102413.28;;;13.03;64.00
68871;BME280;55906;52.278;6.808;2023-04-08T08:30:15;102407.41;;;12.68;62.25
68871;BME280;55906;52.278;6.808;2023-04-08T08:32:44;102407.97;;;12.82;65.26
68871;BME280;55906;52.278;6.808;2023-04-08T08:35:11;102418.53;;;12.82;64.86
68871;BME280;55906;52.278;6.808;2023-04-08T08:37:39;102403.47;;;12.79;64.73
68871;BME280;55906;52.278;6.808;2023-04-08T08:40:07;102412.41;;;12.62;64.41
68871;BME280;55906;52.278;6.808;2023-04-08T08:42:34;102419.31;;;12.59;63.54
68871;BME280;55906;52.278;6.808;2023-04-08T08:45:01;102424.16;;;12.69;63.67
68871;BME280;55906;52.278;6.808;2023-04-08T08:47:28;102425.44;;;12.78;63.37
68871;BME280;55906;52.278;6.808;2023-04-08T08:49:55;102430.84;;;12.81;62.58
68871;BME280;55906;52.278;6.808;2023-04-08T08:52:22;102433.28;;;12.98;62.99
68871;BME280;55906;52.278;6.808;2023-04-08T08:54:56;102433.53;;;12.62;62.64
68871;BME280;55906;52.278;6.808;2023-04-08T08:57:23;102424.72;;;12.82;61.77
68871;BME280;55906;52.278;6.808;2023-04-08T08:59:49;102435.28;;;12.82;60.70
68871;BME280;55906;52.278;6.808;2023-04-08T09:02:23;102435.03;;;12.97;60.30
68871;BME280;55906;52.278;6.808;2023-04-08T09:04:56;102439.94;;;13.52;60.50
68871;BME280;55906;52.278;6.808;2023-04-08T09:07:24;102439.94;;;14.45;59.27
68871;BME280;55906;52.278;6.808;2023-04-08T09:09:52;102429.81;;;15.11;56.17
68871;BME280;55906;52.278;6.808;2023-04-08T09:12:21;102436.28;;;15.74;54.53
68871;BME280;55906;52.278;6.808;2023-04-08T09:14:48;102437.31;;;16.09;54.36
68871;BME280;55906;52.278;6.808;2023-04-08T09:17:14;102439.66;;;16.30;50.51
68871;BME280;55906;52.278;6.808;2023-04-08T09:20:03;102442.97;;;16.21;50.66
68871;BME280;55906;52.278;6.808;2023-04-08T09:22:30;102441.69;;;16.07;52.00
68871;BME280;55906;52.278;6.808;2023-04-08T09:24:57;102446.47;;;16.20;55.52
68871;BME280;55906;52.278;6.808;2023-04-08T09:27:33;102442.66;;;16.11;52.93
68871;BME280;55906;52.278;6.808;2023-04-08T09:30:12;102444.28;;;16.06;52.50
68871;BME280;55906;52.278;6.808;2023-04-08T09:32:46;102450.69;;;15.82;51.61
68871;BME280;55906;52.278;6.808;2023-04-08T09:35:13;102455.44;;;15.94;53.80
68871;BME280;55906;52.278;6.808;2023-04-08T09:37:41;102455.56;;;15.42;54.43
68871;BME280;55906;52.278;6.808;2023-04-08T09:40:08;102457.22;;;15.38;51.01
68871;BME280;55906;52.278;6.808;2023-04-08T09:42:39;102451.97;;;15.66;52.81
68871;BME280;55906;52.278;6.808;2023-04-08T09:45:08;102448.75;;;16.38;51.65
68871;BME280;55906;52.278;6.808;2023-04-08T09:47:43;102441.28;;;16.56;48.58
68871;BME280;55906;52.278;6.808;2023-04-08T09:50:10;102443.56;;;16.43;50.99
68871;BME280;55906;52.278;6.808;2023-04-08T09:52:41;102433.47;;;17.32;50.11
68871;BME280;55906;52.278;6.808;2023-04-08T09:55:11;102438.38;;;17.91;48.43
68871;BME280;55906;52.278;6.808;2023-04-08T09:57:43;102443.59;;;17.85;47.57
68871;BME280;55906;52.278;6.808;2023-04-08T10:00:13;102440.81;;;17.81;48.85
68871;BME280;55906;52.278;6.808;2023-04-08T10:02:51;102431.97;;;18.24;47.11
68871;BME280;55906;52.278;6.808;2023-04-08T10:05:21;102426.25;;;18.06;45.84
68871;BME280;55906;52.278;6.808;2023-04-08T10:07:49;102424.41;;;18.02;48.05
68871;BME280;55906;52.278;6.808;2023-04-08T10:10:16;102427.91;;;17.60;46.72
68871;BME280;55906;52.278;6.808;2023-04-08T10:12:44;102431.91;;;17.79;46.10
68871;BME280;55906;52.278;6.808;2023-04-08T10:15:22;102430.09;;;18.20;46.29
68871;BME280;55906;52.278;6.808;2023-04-08T10:17:49;102436.97;;;18.09;47.80
68871;BME280;55906;52.278;6.808;2023-04-08T10:20:41;102438.28;;;17.48;46.38
68871;BME280;55906;52.278;6.808;2023-04-08T10:23:10;102443.00;;;18.00;46.68
68871;BME280;55906;52.278;6.808;2023-04-08T10:25:38;102441.41;;;18.53;47.17
68871;BME280;55906;52.278;6.808;2023-04-08T10:28:25;102441.78;;;18.72;43.19
68871;BME280;55906;52.278;6.808;2023-04-08T10:30:52;102441.84;;;18.75;46.03
68871;BME280;55906;52.278;6.808;2023-04-08T10:33:22;102437.63;;;18.41;46.35
68871;BME280;55906;52.278;6.808;2023-04-08T10:35:53;102437.69;;;18.92;44.04
68871;BME280;55906;52.278;6.808;2023-04-08T10:38:20;102444.41;;;18.70;44.40
68871;BME280;55906;52.278;6.808;2023-04-08T10:40:48;102439.09;;;19.25;43.87
68871;BME280;55906;52.278;6.808;2023-04-08T10:43:16;102439.25;;;19.93;43.50
68871;BME280;55906;52.278;6.808;2023-04-08T10:45:45;102435.75;;;19.98;42.36
68871;BME280;55906;52.278;6.808;2023-04-08T10:48:17;102437.91;;;19.59;44.63
68871;BME280;55906;52.278;6.808;2023-04-08T10:50:51;102432.78;;;20.48;41.67
68871;BME280;55906;52.278;6.808;2023-04-08T10:53:23;102425.34;;;20.23;41.44
68871;BME280;55906;52.278;6.808;2023-04-08T10:55:51;102423.38;;;20.88;43.10
68871;BME280;55906;52.278;6.808;2023-04-08T10:58:18;102430.72;;;20.26;41.84
68871;BME280;55906;52.278;6.808;2023-04-08T11:00:46;102427.06;;;21.02;43.26
68871;BME280;55906;52.278;6.808;2023-04-08T11:03:12;102418.44;;;21.43;40.85
68871;BME280;55906;52.278;6.808;2023-04-08T11:05:39;102424.72;;;21.48;41.92
68871;BME280;55906;52.278;6.808;2023-04-08T11:08:05;102421.53;;;22.19;41.28
68871;BME280;55906;52.278;6.808;2023-04-08T11:10:36;102425.19;;;22.78;36.90
68871;BME280;55906;52.278;6.808;2023-04-08T11:13:06;102421.59;;;23.40;39.34
68871;BME280;55906;52.278;6.808;2023-04-08T11:15:33;102427.00;;;23.21;39.11
68871;BME280;55906;52.278;6.808;2023-04-08T11:18:03;102424.25;;;23.72;38.19
68871;BME280;55906;52.278;6.808;2023-04-08T11:20:31;102426.81;;;24.02;38.53
68871;BME280;55906;52.278;6.808;2023-04-08T11:23:00;102428.75;;;23.48;39.11
68871;BME280;55906;52.278;6.808;2023-04-08T11:25:27;102425.22;;;23.14;38.86
68871;BME280;55906;52.278;6.808;2023-04-08T11:27:54;102426.09;;;23.21;38.62
68871;BME280;55906;52.278;6.808;2023-04-08T11:30:21;102425.13;;;23.78;38.17
68871;BME280;55906;52.278;6.808;2023-04-08T11:32:48;102428.59;;;24.05;37.78
68871;BME280;55906;52.278;6.808;2023-04-08T11:35:17;102432.25;;;23.90;37.28
68871;BME280;55906;52.278;6.808;2023-04-08T11:37:44;102426.09;;;22.69;38.74
68871;BME280;55906;52.278;6.808;2023-04-08T11:40:12;102428.75;;;22.51;36.86
68871;BME280;55906;52.278;6.808;2023-04-08T11:42:38;102426.06;;;22.51;38.66
68871;BME280;55906;52.278;6.808;2023-04-08T11:45:09;102423.41;;;22.67;37.76
68871;BME280;55906;52.278;6.808;2023-04-08T11:47:37;102434.25;;;21.09;39.47
68871;BME280;55906;52.278;6.808;2023-04-08T11:50:06;102430.91;;;21.35;40.24
68871;BME280;55906;52.278;6.808;2023-04-08T11:52:45;102437.03;;;20.32;40.29
68871;BME280;55906;52.278;6.808;2023-04-08T11:55:22;102433.22;;;20.94;40.23
68871;BME280;55906;52.278;6.808;2023-04-08T11:57:49;102435.16;;;21.10;40.25
68871;BME280;55906;52.278;6.808;2023-04-08T12:00:17;102430.53;;;20.89;40.61
68871;BME280;55906;52.278;6.808;2023-04-08T12:02:44;102439.25;;;20.73;40.63
68871;BME280;55906;52.278;6.808;2023-04-08T12:05:12;102439.88;;;20.44;41.12
68871;BME280;55906;52.278;6.808;2023-04-08T12:07:38;102443.53;;;20.56;41.66
68871;BME280;55906;52.278;6.808;2023-04-08T12:10:07;102441.88;;;20.67;40.56
68871;BME280;55906;52.278;6.808;2023-04-08T12:12:34;102437.81;;;21.08;40.44
68871;BME280;55906;52.278;6.808;2023-04-08T12:15:01;102432.75;;;21.45;40.20
68871;BME280;55906;52.278;6.808;2023-04-08T12:17:28;102432.66;;;21.33;39.69
68871;BME280;55906;52.278;6.808;2023-04-08T12:19:54;102435.97;;;21.01;41.42
68871;BME280;55906;52.278;6.808;2023-04-08T12:22:22;102428.59;;;20.76;40.91
68871;BME280;55906;52.278;6.808;2023-04-08T12:24:48;102435.28;;;20.34;42.02
68871;BME280;55906;52.278;6.808;2023-04-08T12:27:16;102438.63;;;20.15;42.17
68871;BME280;55906;52.278;6.808;2023-04-08T12:29:43;102445.59;;;20.02;42.56
68871;BME280;55906;52.278;6.808;2023-04-08T12:32:10;102444.72;;;20.05;42.38
68871;BME280;55906;52.278;6.808;2023-04-08T12:34:37;102443.94;;;20.12;42.29
68871;BME280;55906;52.278;6.808;2023-04-08T12:37:04;102439.63;;;19.55;44.37
68871;BME280;55906;52.278;6.808;2023-04-08T12:39:30;102442.63;;;19.79;43.07
68871;BME280;55906;52.278;6.808;2023-04-08T12:41:57;102440.22;;;19.99;43.10
68871;BME280;55906;52.278;6.808;2023-04-08T12:44:25;102436.53;;;19.90;43.18
68871;BME280;55906;52.278;6.808;2023-04-08T12:46:52;102438.44;;;20.01;42.73
68871;BME280;55906;52.278;6.808;2023-04-08T12:49:19;102447.81;;;19.69;43.48
68871;BME280;55906;52.278;6.808;2023-04-08T12:51:45;102441.25;;;19.50;44.29
68871;BME280;55906;52.278;6.808;2023-04-08T12:54:12;102442.94;;;19.43;43.94
68871;BME280;55906;52.278;6.808;2023-04-08T12:56:38;102448.16;;;19.36;44.45
68871;BME280;55906;52.278;6.808;2023-04-08T12:59:07;102443.69;;;18.79;45.33